Time;durP1;ratioP1;P1;durP2;ratioP2;P2;SDS_P1;SDS_P2;PMS_P1;PMS_P2;Temp;Humidity;BMP_temperature;BMP_pressure;BME280_temperature;BME280_humidity;BME280_pressure;Samples;Min_cycle;Max_cycle;Signal;HPM_P1;HPM_P2
2022/04/26 03:36:55;;;;;;;21.13;16.57;;;9.30;99.90;;;;;;5085288;28;20868;-81
2022/04/26 03:39:22;;;;;;;26.80;17.50;;;9.30;99.90;;;;;;5083244;28;20749;-81
2022/04/26 03:41:48;;;;;;;20.17;15.30;;;9.20;99.90;;;;;;5084477;28;20486;-82
2022/04/26 03:44:15;;;;;;;20.07;14.30;;;9.00;99.90;;;;;;5083942;28;20535;-80
2022/04/26 03:46:42;;;;;;;19.67;14.73;;;9.10;99.90;;;;;;5083967;28;20463;-84
2022/04/26 03:49:10;;;;;;;21.97;15.73;;;9.10;99.90;;;;;;5084248;28;21044;-81
2022/04/26 03:51:37;;;;;;;18.10;14.23;;;9.10;99.90;;;;;;5085089;28;20482;-81
2022/04/26 03:54:03;;;;;;;19.10;15.00;;;9.10;99.90;;;;;;5084145;28;20487;-82
2022/04/26 03:56:30;;;;;;;17.80;12.90;;;9.00;99.90;;;;;;5083079;28;20445;-82
2022/04/26 03:58:57;;;;;;;19.67;13.03;;;9.10;99.90;;;;;;5083448;28;20990;-82
2022/04/26 04:01:24;;;;;;;18.03;14.30;;;9.20;99.90;;;;;;5082737;28;20505;-82
2022/04/26 04:03:50;;;;;;;20.43;13.63;;;9.20;99.90;;;;;;5082059;28;20452;-82
2022/04/26 04:06:18;;;;;;;15.77;11.87;;;9.10;99.90;;;;;;5082578;28;20537;-82
2022/04/26 04:08:45;;;;;;;19.17;14.27;;;9.20;99.90;;;;;;5083247;28;20458;-83
2022/04/26 04:11:12;;;;;;;19.10;13.43;;;9.10;99.90;;;;;;5080968;28;20477;-82
2022/04/26 04:13:40;;;;;;;16.80;12.23;;;9.20;99.90;;;;;;5083172;28;20480;-83
2022/04/26 04:16:06;;;;;;;15.70;12.10;;;9.20;99.90;;;;;;5082226;28;20451;-83
2022/04/26 04:21:19;;;;;;;19.40;14.17;;;9.20;99.90;;;;;;5082266;28;20472;-82
2022/04/26 04:23:46;;;;;;;16.43;11.90;;;9.20;99.90;;;;;;5083345;28;20457;-82
2022/04/26 04:26:13;;;;;;;16.03;12.27;;;9.20;99.90;;;;;;5080776;28;20452;-84
2022/04/26 04:28:39;;;;;;;21.43;13.00;;;9.20;99.90;;;;;;5075713;28;20450;-82
2022/04/26 04:31:07;;;;;;;13.90;11.70;;;9.20;99.90;;;;;;5088190;28;20865;-82
2022/04/26 04:33:34;;;;;;;14.60;11.47;;;9.30;99.90;;;;;;5085412;28;20491;-82
2022/04/26 04:36:00;;;;;;;15.00;11.13;;;9.30;99.90;;;;;;5085753;28;20449;-83
2022/04/26 04:38:29;;;;;;;12.80;9.73;;;9.30;99.90;;;;;;5083327;28;20452;-82
2022/04/26 04:40:55;;;;;;;13.63;10.60;;;9.30;99.90;;;;;;5079683;28;20462;-82
2022/04/26 04:43:22;;;;;;;13.90;9.60;;;9.20;99.90;;;;;;5075123;28;20450;-82
2022/04/26 04:45:49;;;;;;;13.83;10.00;;;9.30;99.90;;;;;;5074675;28;20470;-83
2022/04/26 04:48:16;;;;;;;12.40;10.27;;;9.10;99.90;;;;;;5083777;28;20446;-82
2022/04/26 04:50:44;;;;;;;12.17;9.10;;;9.10;99.90;;;;;;5071346;28;20526;-83
2022/04/26 04:53:11;;;;;;;12.90;9.17;;;9.00;99.90;;;;;;5075407;28;20541;-83
2022/04/26 04:55:41;;;;;;;15.60;10.90;;;9.00;99.90;;;;;;5075292;28;20518;-84
2022/04/26 04:58:08;;;;;;;12.87;9.03;;;9.00;99.90;;;;;;5078696;28;20524;-83
2022/04/26 05:00:35;;;;;;;15.23;10.40;;;9.00;99.90;;;;;;5079038;28;20449;-83
2022/04/26 05:03:02;;;;;;;11.30;9.70;;;9.00;99.90;;;;;;5080275;28;20453;-83
2022/04/26 05:05:29;;;;;;;12.83;8.63;;;8.80;99.90;;;;;;5078043;28;20497;-83
2022/04/26 05:07:58;;;;;;;13.77;10.33;;;8.90;99.90;;;;;;5077502;28;20462;-83
2022/04/26 05:10:24;;;;;;;11.83;8.43;;;9.00;99.90;;;;;;5086472;28;20457;-81
2022/04/26 05:12:53;;;;;;;12.97;8.60;;;8.90;99.90;;;;;;5088719;28;20452;-81
2022/04/26 05:15:20;;;;;;;16.03;8.83;;;9.00;99.90;;;;;;5088470;28;20528;-81
2022/04/26 05:17:46;;;;;;;14.10;9.57;;;9.00;99.90;;;;;;5082456;28;20979;-82
2022/04/26 05:20:15;;;;;;;12.47;8.53;;;9.10;99.90;;;;;;5081367;28;20451;-81
2022/04/26 05:25:26;;;;;;;11.90;10.57;;;9.30;99.90;;;;;;5074415;28;20432;-82
2022/04/26 05:27:55;;;;;;;13.83;8.60;;;9.40;99.90;;;;;;5073162;28;20456;-83
2022/04/26 05:30:21;;;;;;;14.80;10.37;;;9.40;99.90;;;;;;5076840;28;20504;-82
2022/04/26 05:32:48;;;;;;;11.73;8.27;;;9.50;99.90;;;;;;5075635;28;20896;-82
2022/04/26 05:35:15;;;;;;;11.03;9.50;;;9.60;99.90;;;;;;5078758;28;20593;-82
2022/04/26 05:37:42;;;;;;;14.43;9.00;;;9.50;99.90;;;;;;5078122;28;20456;-82
2022/04/26 05:40:09;;;;;;;16.10;10.37;;;9.40;99.90;;;;;;5078186;28;20450;-81
2022/04/26 05:42:38;;;;;;;13.73;8.77;;;9.40;99.90;;;;;;5076940;28;20476;-81
2022/04/26 05:45:07;;;;;;;11.77;8.90;;;9.40;99.90;;;;;;5077709;28;20963;-81
2022/04/26 05:47:34;;;;;;;11.00;8.37;;;9.40;99.90;;;;;;5076729;28;20460;-82
2022/04/26 05:50:01;;;;;;;12.57;10.43;;;9.30;99.90;;;;;;5074078;28;20445;-82
2022/04/26 05:52:28;;;;;;;12.23;9.57;;;9.30;99.90;;;;;;5070139;28;20480;-80
2022/04/26 05:54:55;;;;;;;12.00;9.80;;;9.30;99.90;;;;;;5071154;28;20488;-81
2022/04/26 05:57:25;;;;;;;12.60;9.30;;;9.30;99.90;;;;;;5067508;28;20456;-84
2022/04/26 05:59:52;;;;;;;12.73;8.53;;;9.30;99.90;;;;;;5072795;28;20490;-82
2022/04/26 06:02:20;;;;;;;15.00;9.60;;;9.30;99.90;;;;;;5073344;28;20477;-83
2022/04/26 06:04:47;;;;;;;15.10;11.47;;;9.10;99.90;;;;;;5071678;28;20453;-83
2022/04/26 06:07:14;;;;;;;15.97;10.90;;;9.10;99.90;;;;;;5073950;28;20456;-83
2022/04/26 06:09:40;;;;;;;12.17;9.80;;;9.20;99.90;;;;;;5073035;28;20457;-83
2022/04/26 06:12:08;;;;;;;13.67;8.43;;;9.30;99.90;;;;;;5073925;28;20485;-83
2022/04/26 06:14:35;;;;;;;12.67;9.80;;;9.40;99.90;;;;;;5074132;28;21014;-83
2022/04/26 06:17:02;;;;;;;12.33;8.63;;;9.40;99.90;;;;;;5092392;22;20497;-83
2022/04/26 06:19:30;;;;;;;14.93;10.13;;;9.40;99.90;;;;;;5067590;28;20505;-83
2022/04/26 06:21:57;;;;;;;14.10;9.67;;;9.60;99.90;;;;;;5068019;28;20894;-83
2022/04/26 06:24:24;;;;;;;12.67;9.47;;;9.50;99.90;;;;;;5069013;28;20510;-83
2022/04/26 06:26:51;;;;;;;12.73;10.53;;;9.70;99.90;;;;;;5069954;28;20466;-84
2022/04/26 06:29:18;;;;;;;13.50;10.40;;;9.40;99.90;;;;;;5069336;28;20449;-81
2022/04/26 06:31:46;;;;;;;16.37;10.33;;;9.70;99.90;;;;;;5069596;28;20443;-82
2022/04/26 06:34:13;;;;;;;14.03;9.70;;;9.70;99.90;;;;;;5070009;28;20483;-82
2022/04/26 06:36:41;;;;;;;13.73;10.53;;;9.80;99.90;;;;;;5069488;28;20481;-84
2022/04/26 06:39:08;;;;;;;11.07;9.43;;;10.00;99.90;;;;;;5068559;28;20454;-82
2022/04/26 06:41:35;;;;;;;19.27;10.27;;;10.10;99.90;;;;;;5068998;28;20526;-83
2022/04/26 06:44:02;;;;;;;14.73;10.93;;;10.20;99.90;;;;;;5069211;28;20501;-83
2022/04/26 06:46:28;;;;;;;13.97;10.70;;;10.30;99.90;;;;;;5069980;28;20513;-83
2022/04/26 06:48:58;;;;;;;17.00;11.40;;;10.60;99.90;;;;;;5075171;28;20481;-83
2022/04/26 06:51:25;;;;;;;16.07;11.97;;;10.60;99.90;;;;;;5065840;28;20451;-82
2022/04/26 06:53:53;;;;;;;18.20;11.50;;;10.70;99.90;;;;;;5066267;28;20550;-83
2022/04/26 06:56:20;;;;;;;14.43;11.30;;;10.70;99.90;;;;;;5066411;28;20470;-82
2022/04/26 06:58:46;;;;;;;14.33;11.10;;;11.00;99.90;;;;;;5064595;28;20461;-83
2022/04/26 07:01:13;;;;;;;15.03;11.47;;;11.10;99.90;;;;;;5064390;28;20454;-83
2022/04/26 07:03:43;;;;;;;12.60;10.30;;;11.20;99.90;;;;;;5064337;28;20881;-83
2022/04/26 07:09:01;;;;;;;20.43;12.40;;;11.30;99.90;;;;;;5057210;28;20447;-82
2022/04/26 07:11:28;;;;;;;15.50;11.83;;;11.30;99.90;;;;;;5061124;28;20584;-82
2022/04/26 07:13:57;;;;;;;15.00;12.90;;;11.40;99.90;;;;;;5064293;28;20460;-83
2022/04/26 07:16:24;;;;;;;18.77;14.13;;;11.30;99.90;;;;;;5064842;28;20498;-83
2022/04/26 07:18:50;;;;;;;21.33;13.10;;;11.30;99.90;;;;;;5063250;28;20464;-82
2022/04/26 07:21:18;;;;;;;17.37;13.20;;;11.60;99.90;;;;;;5064898;28;20447;-83
2022/04/26 07:23:44;;;;;;;15.90;12.63;;;11.60;99.90;;;;;;5061412;28;21193;-84
2022/04/26 07:26:13;;;;;;;21.07;14.10;;;11.70;99.90;;;;;;5062645;28;20876;-84
2022/04/26 07:28:39;;;;;;;16.70;13.43;;;11.50;99.90;;;;;;5062926;28;20446;-83
2022/04/26 07:31:08;;;;;;;21.73;15.60;;;11.60;99.90;;;;;;5061934;28;20479;-82
2022/04/26 07:36:31;;;;;;;21.63;16.30;;;11.70;99.90;;;;;;4994160;28;20454;-83
2022/04/26 07:38:57;;;;;;;26.73;18.53;;;11.80;99.90;;;;;;5044773;28;20455;-83
2022/04/26 07:41:30;;;;;;;23.80;17.80;;;12.00;99.90;;;;;;5063390;28;20452;-82
2022/04/26 07:43:57;;;;;;;23.03;17.50;;;12.20;99.90;;;;;;5061330;28;20587;-83
2022/04/26 07:46:23;;;;;;;22.70;17.60;;;12.40;99.90;;;;;;5065108;28;20475;-83
2022/04/26 07:48:54;;;;;;;20.10;15.83;;;12.90;99.90;;;;;;5062669;28;20531;-84
2022/04/26 07:54:04;;;;;;;16.63;14.37;;;13.50;99.90;;;;;;5058829;28;20494;-82
2022/04/26 07:56:34;;;;;;;19.57;16.20;;;13.50;99.90;;;;;;5061276;28;20531;-82
2022/04/26 07:59:03;;;;;;;24.90;18.97;;;13.30;99.90;;;;;;5065491;28;20464;-83
2022/04/26 08:01:31;;;;;;;21.37;17.03;;;13.70;99.90;;;;;;5047353;28;20535;-83
2022/04/26 08:04:25;;;;;;;21.37;16.47;;;14.10;99.90;;;;;;5061065;28;20461;-83
2022/04/26 08:06:52;;;;;;;19.03;15.83;;;13.70;99.90;;;;;;5059020;28;20487;-82
2022/04/26 08:09:18;;;;;;;18.00;16.03;;;13.80;99.90;;;;;;5061577;28;21081;-83
2022/04/26 08:11:47;;;;;;;19.97;16.67;;;13.80;99.90;;;;;;5058192;28;20482;-83
2022/04/26 08:14:14;;;;;;;22.33;16.47;;;13.30;99.90;;;;;;5061684;28;20459;-83
2022/04/26 08:16:41;;;;;;;18.30;14.47;;;13.20;99.90;;;;;;5065635;28;20488;-85
2022/04/26 08:19:10;;;;;;;17.07;14.60;;;13.40;99.90;;;;;;5067936;28;20517;-84
2022/04/26 08:21:37;;;;;;;15.30;13.07;;;13.40;99.90;;;;;;5060884;28;20475;-83
2022/04/26 08:29:34;;;;;;;19.00;15.10;;;13.50;99.90;;;;;;5066667;28;20454;-85
2022/04/26 08:32:01;;;;;;;21.33;13.43;;;13.60;99.90;;;;;;5067705;28;20486;-82
2022/04/26 08:34:28;;;;;;;20.03;14.33;;;13.50;99.90;;;;;;5066960;28;20483;-83
2022/04/26 08:36:55;;;;;;;17.40;14.63;;;13.70;99.90;;;;;;5069039;28;20479;-84
2022/04/26 08:39:23;;;;;;;17.80;14.23;;;13.90;99.90;;;;;;5069179;28;21040;-83
2022/04/26 08:41:57;;;;;;;18.00;14.70;;;13.90;99.90;;;;;;5067432;28;20465;-83
2022/04/26 08:44:27;;;;;;;17.60;14.67;;;13.60;99.90;;;;;;5068681;28;20469;-84
2022/04/26 08:52:24;;;;;;;17.57;14.20;;;13.00;99.90;;;;;;5068605;28;20439;-84
2022/04/26 08:54:51;;;;;;;17.63;14.83;;;13.10;99.90;;;;;;5069555;28;20487;-84
2022/04/26 08:57:20;;;;;;;17.20;13.63;;;13.00;99.90;;;;;;5069942;28;20540;-84
2022/04/26 08:59:48;;;;;;;18.83;13.57;;;13.10;99.90;;;;;;5069507;28;20467;-84
2022/04/26 09:02:16;;;;;;;16.20;13.77;;;13.10;99.90;;;;;;5074379;28;20433;-83
2022/04/26 09:04:43;;;;;;;18.03;13.67;;;13.40;99.90;;;;;;5073227;28;20451;-84
2022/04/26 09:07:12;;;;;;;17.93;14.43;;;13.90;99.90;;;;;;5068416;28;20466;-83
2022/04/26 09:09:40;;;;;;;13.90;12.30;;;14.30;99.90;;;;;;5076383;28;20448;-84
2022/04/26 09:12:10;;;;;;;16.83;13.57;;;14.30;99.90;;;;;;5076303;28;20437;-83
2022/04/26 09:14:47;;;;;;;23.00;13.53;;;14.30;99.90;;;;;;5075561;28;20487;-83
2022/04/26 09:17:16;;;;;;;15.17;13.20;;;14.50;99.90;;;;;;5054519;28;20486;-83
2022/04/26 09:19:48;;;;;;;15.90;13.07;;;14.50;99.90;;;;;;5056029;28;20451;-85
2022/04/26 09:22:19;;;;;;;16.17;12.97;;;14.60;99.90;;;;;;5055306;28;20532;-80
2022/04/26 09:24:57;;;;;;;15.30;12.60;;;14.60;99.90;;;;;;5059237;28;20467;-83
2022/04/26 09:27:25;;;;;;;14.20;12.30;;;14.70;99.90;;;;;;5065169;28;20503;-84
2022/04/26 09:29:53;;;;;;;17.30;12.17;;;14.70;99.90;;;;;;5064216;28;20475;-82
2022/04/26 09:32:20;;;;;;;15.30;13.27;;;14.90;99.90;;;;;;5064902;28;20565;-83
2022/04/26 09:34:47;;;;;;;17.30;14.70;;;15.50;99.90;;;;;;5059482;28;20495;-84
2022/04/26 09:37:14;;;;;;;17.50;14.13;;;15.70;99.90;;;;;;5064301;28;20449;-83
2022/04/26 09:39:41;;;;;;;17.43;12.80;;;15.20;99.90;;;;;;5063061;28;20550;-83
2022/04/26 09:42:09;;;;;;;15.67;12.93;;;15.30;99.90;;;;;;5062572;28;20464;-85
2022/04/26 09:44:38;;;;;;;15.37;12.57;;;15.20;99.90;;;;;;5062724;28;20499;-82
2022/04/26 09:47:07;;;;;;;15.97;13.67;;;15.70;99.90;;;;;;5064210;28;20475;-82
2022/04/26 09:49:37;;;;;;;19.53;13.10;;;16.30;99.90;;;;;;5064786;28;20819;-83
2022/04/26 09:52:06;;;;;;;14.73;12.77;;;16.90;99.90;;;;;;5064760;28;20887;-83
2022/04/26 09:54:35;;;;;;;15.50;11.27;;;18.60;99.90;;;;;;5065905;28;20455;-83
2022/04/26 09:57:06;;;;;;;13.03;11.33;;;18.90;99.90;;;;;;5064850;28;20550;-83
2022/04/26 09:59:39;;;;;;;12.50;9.60;;;20.10;99.90;;;;;;5064852;28;20447;-84
2022/04/26 10:02:10;;;;;;;14.30;11.20;;;21.00;99.90;;;;;;5065586;28;20453;-83
2022/04/26 10:04:45;;;;;;;15.40;11.60;;;20.90;99.90;;;;;;5045181;28;20462;-84
2022/04/26 10:07:15;;;;;;;14.43;12.00;;;21.10;99.90;;;;;;5059539;28;20487;-82
2022/04/26 10:09:45;;;;;;;14.07;12.57;;;20.30;99.90;;;;;;5063123;28;20448;-84
2022/04/26 10:12:13;;;;;;;13.63;11.50;;;20.10;99.90;;;;;;5062081;28;20443;-83
2022/04/26 10:14:40;;;;;;;13.30;10.40;;;20.50;99.90;;;;;;5061735;28;21016;-83
2022/04/26 10:17:08;;;;;;;12.43;11.00;;;21.30;99.90;;;;;;5061971;28;20490;-83
2022/04/26 10:19:40;;;;;;;11.00;9.90;;;22.30;98.30;;;;;;5061060;28;20461;-84
2022/04/26 10:22:08;;;;;;;12.30;11.10;;;23.40;99.40;;;;;;5060180;28;20542;-83
2022/04/26 10:24:36;;;;;;;11.80;10.50;;;23.60;88.30;;;;;;5060536;28;20706;-84
2022/04/26 10:27:18;;;;;;;14.93;10.43;;;25.30;85.80;;;;;;5060957;28;20468;-83
2022/04/26 10:29:45;;;;;;;11.00;9.20;;;26.00;73.20;;;;;;5055808;28;20470;-84
2022/04/26 10:32:29;;;;;;;11.50;10.40;;;26.80;74.70;;;;;;5058480;28;20475;-84
2022/04/26 10:34:56;;;;;;;10.17;8.73;;;28.10;71.10;;;;;;5057194;28;20444;-84
2022/04/26 10:37:41;;;;;;;12.47;11.20;;;29.10;66.50;;;;;;5061581;28;20474;-84
2022/04/26 10:40:08;;;;;;;13.73;12.20;;;29.80;62.70;;;;;;5063092;28;20459;-83
2022/04/26 10:42:35;;;;;;;10.40;9.40;;;28.40;58.40;;;;;;5062255;28;20455;-83
2022/04/26 10:45:08;;;;;;;12.80;11.50;;;26.50;59.70;;;;;;5060782;28;20452;-83
2022/04/26 10:47:37;;;;;;;11.20;10.10;;;25.70;62.90;;;;;;5060773;28;20574;-82
2022/04/26 10:50:12;;;;;;;13.13;11.73;;;25.20;64.80;;;;;;5061868;28;20505;-82
2022/04/26 10:52:50;;;;;;;14.43;12.00;;;24.40;65.80;;;;;;5062074;28;20514;-82
2022/04/26 10:55:18;;;;;;;11.90;10.33;;;24.10;65.60;;;;;;5062269;28;21018;-83
2022/04/26 10:57:55;;;;;;;14.60;11.60;;;23.40;69.60;;;;;;5062787;28;20471;-83
2022/04/26 11:00:34;;;;;;;13.03;11.73;;;22.30;74.50;;;;;;5060969;28;20483;-85
2022/04/26 11:03:04;;;;;;;13.97;12.57;;;21.90;80.10;;;;;;5059070;28;21004;-83
2022/04/26 11:05:32;;;;;;;11.80;10.70;;;23.60;79.00;;;;;;5044711;28;20455;-83
2022/04/26 11:07:59;;;;;;;13.37;12.00;;;26.00;81.50;;;;;;5041918;28;20484;-83
2022/04/26 11:10:27;;;;;;;12.93;11.60;;;26.30;68.50;;;;;;5064255;28;20545;-83
2022/04/26 11:12:56;;;;;;;15.87;11.97;;;26.20;69.50;;;;;;5064770;28;20523;-83
2022/04/26 11:15:25;;;;;;;11.83;10.53;;;27.50;66.80;;;;;;5065448;28;20529;-84
2022/04/26 11:17:54;;;;;;;11.03;9.93;;;29.80;62.20;;;;;;5073791;28;20502;-82
2022/04/26 11:20:24;;;;;;;13.20;11.37;;;29.80;58.30;;;;;;5062083;28;20509;-82
2022/04/26 11:22:53;;;;;;;11.30;10.10;;;29.00;52.60;;;;;;5061460;28;20463;-82
2022/04/26 11:28:12;;;;;;;13.20;11.90;;;25.20;56.20;;;;;;5061004;28;20470;-83
2022/04/26 11:30:41;;;;;;;12.80;11.43;;;22.80;58.30;;;;;;5064003;28;20443;-80
2022/04/26 11:33:09;;;;;;;17.90;11.20;;;21.30;65.70;;;;;;5044396;28;20543;-82
2022/04/26 11:35:37;;;;;;;13.60;10.50;;;22.20;71.40;;;;;;5051923;28;20476;-82
2022/04/26 11:38:08;;;;;;;12.43;11.23;;;23.80;70.30;;;;;;5066393;28;20477;-81
2022/04/26 11:40:38;;;;;;;13.43;12.03;;;23.80;67.80;;;;;;5065653;28;20465;-84
2022/04/26 11:43:13;;;;;;;13.60;12.20;;;23.50;64.20;;;;;;5046327;28;20479;-83
2022/04/26 11:45:41;;;;;;;12.20;11.00;;;22.50;66.60;;;;;;5046611;28;20462;-80
2022/04/26 11:48:10;;;;;;;13.80;12.40;;;21.70;69.80;;;;;;5046141;28;20502;-83
2022/04/26 11:50:39;;;;;;;13.00;10.30;;;21.80;77.00;;;;;;5052880;28;21078;-83
2022/04/26 11:53:08;;;;;;;11.37;10.27;;;25.20;76.80;;;;;;5066084;28;20845;-81
2022/04/26 11:55:37;;;;;;;16.10;13.27;;;25.60;66.20;;;;;;5062685;28;20476;-81
2022/04/26 11:58:32;;;;;;;13.70;12.37;;;22.50;63.60;;;;;;5063606;28;20494;-81
2022/04/26 12:01:02;;;;;;;13.60;11.60;;;20.80;68.90;;;;;;5059788;28;20471;-82
2022/04/26 12:03:30;;;;;;;13.13;11.47;;;19.50;74.60;;;;;;5060863;28;20451;-82
2022/04/26 12:06:01;;;;;;;14.60;11.90;;;19.10;85.50;;;;;;5060200;28;20451;-81
2022/04/26 12:08:29;;;;;;;16.73;13.33;;;19.00;94.90;;;;;;5057143;28;20483;-81
2022/04/26 12:11:12;;;;;;;14.33;12.47;;;18.80;96.80;;;;;;5062148;28;20483;-81
2022/04/26 12:13:39;;;;;;;17.50;14.23;;;18.60;99.90;;;;;;5059862;28;20470;-82
2022/04/26 12:16:20;;;;;;;15.97;14.23;;;18.30;99.90;;;;;;5061448;28;20539;-81
2022/04/26 12:18:55;;;;;;;16.73;14.83;;;18.60;99.90;;;;;;5061678;28;20474;-83
2022/04/26 12:21:46;;;;;;;17.77;13.30;;;21.40;99.90;;;;;;5070140;28;20444;-82
2022/04/26 12:24:15;;;;;;;13.17;11.97;;;25.30;96.80;;;;;;5059060;28;20464;-83
2022/04/26 12:26:53;;;;;;;12.60;9.90;;;28.50;75.00;;;;;;5041578;28;20538;-81
2022/04/26 12:29:20;;;;;;;9.00;8.20;;;30.50;60.00;;;;;;5050581;28;20829;-82
2022/04/26 12:31:49;;;;;;;11.30;10.20;;;31.10;57.20;;;;;;5058209;28;20462;-84
2022/04/26 12:34:17;;;;;;;12.97;11.67;;;28.30;54.70;;;;;;5061126;28;20547;-81
2022/04/26 12:36:56;;;;;;;12.60;11.40;;;25.40;55.90;;;;;;5061457;28;20913;-80
2022/04/26 12:39:25;;;;;;;14.73;13.20;;;23.60;59.50;;;;;;5060673;28;20470;-82
2022/04/26 12:41:53;;;;;;;13.50;11.80;;;22.50;63.40;;;;;;5060174;28;20491;-80
2022/04/26 12:44:20;;;;;;;12.80;11.50;;;21.60;65.90;;;;;;5059994;28;20520;-81
2022/04/26 12:50:28;;;;;;;11.73;10.63;;;20.70;66.80;;;;;;5059759;28;20551;-81
2022/04/26 12:52:52;;;;;;;11.60;10.57;;;20.80;75.00;;;;;;5061233;28;20439;-81
2022/04/26 12:55:27;;;;;;;10.50;9.27;;;20.90;74.20;;;;;;5057411;28;20448;-81
2022/04/26 12:57:55;;;;;;;12.80;11.50;;;20.70;73.80;;;;;;5057055;28;20471;-82
2022/04/26 13:00:23;;;;;;;11.53;10.43;;;20.30;74.90;;;;;;5061506;22;20616;-80
2022/04/26 13:02:52;;;;;;;15.77;11.17;;;19.70;76.50;;;;;;5037363;28;20452;-80
2022/04/26 13:05:19;;;;;;;12.40;11.10;;;19.10;82.70;;;;;;5036742;28;20966;-81
2022/04/26 13:07:47;;;;;;;13.53;11.47;;;19.00;87.00;;;;;;5036834;28;20448;-79
2022/04/26 13:10:16;;;;;;;11.93;10.67;;;18.60;93.30;;;;;;5035467;28;20515;-78
2022/04/26 13:12:43;;;;;;;11.93;10.73;;;18.30;99.90;;;;;;5036093;28;20455;-81
2022/04/26 13:15:11;;;;;;;12.97;10.80;;;18.10;99.90;;;;;;5035462;28;20457;-80
2022/04/26 13:17:38;;;;;;;13.97;12.53;;;17.80;99.90;;;;;;5037423;28;20564;-79
2022/04/26 13:20:07;;;;;;;15.43;13.83;;;17.50;99.90;;;;;;5036268;28;20477;-82
2022/04/26 13:22:35;;;;;;;14.73;13.00;;;17.20;99.90;;;;;;5036369;28;20460;-79
2022/04/26 13:25:03;;;;;;;15.67;13.90;;;16.90;99.90;;;;;;5036430;28;20492;-81
2022/04/26 13:27:31;;;;;;;16.50;14.80;;;16.50;99.90;;;;;;5037408;28;20488;-82
2022/04/26 13:29:58;;;;;;;17.90;16.03;;;16.30;99.90;;;;;;5036449;28;21011;-81
2022/04/26 13:32:25;;;;;;;18.80;16.27;;;15.70;99.90;;;;;;5035944;28;20478;-80
2022/04/26 13:34:52;;;;;;;19.10;17.30;;;15.10;99.90;;;;;;5035161;28;20514;-81
2022/04/26 13:37:19;;;;;;;21.47;19.23;;;14.60;99.90;;;;;;5036992;28;20480;-82
2022/04/26 13:39:47;;;;;;;29.53;23.13;;;14.20;99.90;;;;;;5038248;28;20480;-82
2022/04/26 13:42:14;;;;;;;23.57;21.03;;;13.90;99.90;;;;;;5038829;28;20469;-82
2022/04/26 13:44:42;;;;;;;26.40;22.03;;;13.60;99.90;;;;;;5033021;28;20525;-82
2022/04/26 13:47:09;;;;;;;25.43;21.13;;;13.70;99.90;;;;;;5040710;28;20456;-81
2022/04/26 13:49:36;;;;;;;24.97;22.47;;;13.70;99.90;;;;;;5037155;28;21004;-81
2022/04/26 13:52:04;;;;;;;26.17;23.37;;;13.70;99.90;;;;;;5037174;28;20453;-81
2022/04/26 13:54:31;;;;;;;22.80;20.30;;;13.70;99.90;;;;;;5037771;28;20997;-81
2022/04/26 13:56:58;;;;;;;24.90;21.90;;;13.90;99.90;;;;;;5035813;28;20551;-82
2022/04/26 13:59:25;;;;;;;23.90;21.37;;;14.00;99.90;;;;;;5035760;28;20490;-82
2022/04/26 14:01:55;;;;;;;20.83;17.67;;;14.00;99.90;;;;;;5035700;28;20543;-81
2022/04/26 14:04:22;;;;;;;22.20;19.80;;;13.90;99.90;;;;;;5035909;28;20446;-81
2022/04/26 14:06:50;;;;;;;27.40;22.10;;;13.90;99.90;;;;;;5039192;28;20452;-83
2022/04/26 14:09:17;;;;;;;19.90;17.53;;;13.90;99.90;;;;;;5036203;28;20478;-82
2022/04/26 14:11:45;;;;;;;23.70;20.30;;;13.90;99.90;;;;;;5035441;28;20514;-81
2022/04/26 14:22:30;;;;;;;22.70;20.40;;;13.80;99.90;;;;;;5024919;28;20400;-83
2022/04/26 14:24:58;;;;;;;22.13;19.70;;;14.00;99.90;;;;;;5045197;28;20470;-84
2022/04/26 14:27:25;;;;;;;27.30;22.17;;;14.20;99.90;;;;;;5039133;28;20453;-84
2022/04/26 14:29:52;;;;;;;23.07;19.90;;;14.10;99.90;;;;;;5037988;28;21033;-83
2022/04/26 14:32:20;;;;;;;23.87;21.37;;;14.20;99.90;;;;;;5038212;28;20459;-84
2022/04/26 14:34:47;;;;;;;20.80;18.50;;;14.20;99.90;;;;;;5037084;28;20829;-83
2022/04/26 14:37:14;;;;;;;23.50;19.70;;;14.30;99.90;;;;;;5037058;28;20485;-84
2022/04/26 14:39:41;;;;;;;24.80;19.43;;;14.50;99.90;;;;;;5037077;28;20469;-84
2022/04/26 14:42:08;;;;;;;24.97;22.20;;;14.60;99.90;;;;;;5036903;28;20934;-83
2022/04/26 14:44:35;;;;;;;28.07;20.40;;;14.60;99.90;;;;;;5036082;28;21021;-82
2022/04/26 14:47:03;;;;;;;21.67;19.43;;;14.60;99.90;;;;;;5035340;28;20448;-83
2022/04/26 14:49:31;;;;;;;26.53;20.20;;;14.70;99.90;;;;;;5021131;28;20511;-83
2022/04/26 14:51:58;;;;;;;21.30;18.63;;;14.80;99.90;;;;;;5035492;28;20833;-83
2022/04/26 14:54:25;;;;;;;26.97;22.13;;;14.80;99.90;;;;;;5037843;28;20456;-83
2022/04/26 14:56:52;;;;;;;21.50;19.20;;;14.70;99.90;;;;;;5035984;28;20584;-82
2022/04/26 14:59:20;;;;;;;22.37;20.17;;;14.90;99.90;;;;;;5035868;28;20487;-82
2022/04/26 15:01:49;;;;;;;21.50;19.33;;;15.10;99.90;;;;;;5034663;28;20447;-83
2022/04/26 15:04:17;;;;;;;23.07;20.47;;;15.30;99.90;;;;;;5036489;28;20540;-81
2022/04/26 15:06:45;;;;;;;21.80;19.67;;;15.30;99.90;;;;;;5039955;28;20456;-82
2022/04/26 15:17:22;;;;;;;24.17;21.40;;;15.60;99.90;;;;;;5022419;28;21023;-82
2022/04/26 15:19:50;;;;;;;21.40;19.27;;;15.70;99.90;;;;;;5039750;28;20562;-83
2022/04/26 15:22:19;;;;;;;23.50;20.27;;;15.70;99.90;;;;;;5039184;28;20483;-84
2022/04/26 15:24:45;;;;;;;23.50;19.30;;;15.60;99.90;;;;;;5039557;28;20468;-81
2022/04/26 15:27:13;;;;;;;24.30;21.33;;;15.60;99.90;;;;;;5039600;28;20476;-82
2022/04/26 15:29:40;;;;;;;18.37;16.57;;;15.20;99.90;;;;;;5039899;28;20811;-83
2022/04/26 15:32:08;;;;;;;16.73;14.50;;;15.00;99.90;;;;;;5038607;28;20448;-84
2022/04/26 15:34:35;;;;;;;15.70;13.63;;;14.50;99.90;;;;;;5040782;28;20451;-83
2022/04/26 15:37:02;;;;;;;15.97;14.37;;;14.40;99.90;;;;;;5040369;28;21001;-83
2022/04/26 15:39:31;;;;;;;15.93;14.33;;;14.10;99.90;;;;;;5040312;28;20500;-84
2022/04/26 15:41:59;;;;;;;10.57;9.47;;;13.90;99.90;;;;;;5042179;28;20449;-83
2022/04/26 15:44:26;;;;;;;11.90;9.53;;;13.80;99.90;;;;;;5039642;28;20444;-82
2022/04/26 15:46:56;;;;;;;9.73;8.70;;;13.80;99.90;;;;;;5038124;28;20452;-84
2022/04/26 15:49:24;;;;;;;8.90;8.10;;;13.70;99.90;;;;;;5028608;28;20479;-83
2022/04/26 15:51:51;;;;;;;13.00;10.80;;;13.70;99.90;;;;;;5040325;28;20463;-81
2022/04/26 15:54:18;;;;;;;10.50;7.83;;;13.50;99.90;;;;;;5038881;28;20454;-83
2022/04/26 15:56:47;;;;;;;9.97;8.97;;;13.40;99.90;;;;;;5038741;28;20487;-81
2022/04/26 15:59:14;;;;;;;8.47;7.57;;;13.40;99.90;;;;;;5032748;28;20490;-83
2022/04/26 16:01:41;;;;;;;10.40;8.60;;;13.50;99.90;;;;;;5038423;28;20453;-83
2022/04/26 16:04:09;;;;;;;9.17;8.20;;;13.50;99.90;;;;;;5040095;28;20463;-83
2022/04/26 16:06:37;;;;;;;10.93;9.77;;;13.50;99.90;;;;;;5038976;28;20465;-81
2022/04/26 16:22:49;;;;;;;11.03;9.50;;;13.40;99.90;;;;;;5037070;28;20432;-82
2022/04/26 16:25:16;;;;;;;11.77;10.67;;;13.40;99.90;;;;;;5030998;28;20470;-84
2022/04/26 16:27:44;;;;;;;11.70;10.40;;;13.40;99.90;;;;;;5036165;28;20900;-82
2022/04/26 16:30:12;;;;;;;11.07;10.00;;;13.30;99.90;;;;;;5035987;28;20985;-84
2022/04/26 16:32:39;;;;;;;11.00;9.90;;;13.30;99.90;;;;;;5037324;28;20454;-82
2022/04/26 16:35:06;;;;;;;10.60;9.50;;;13.40;99.90;;;;;;5032710;28;20450;-83
2022/04/26 16:37:33;;;;;;;11.23;10.10;;;13.40;99.90;;;;;;5036490;28;20478;-83
2022/04/26 16:40:00;;;;;;;10.87;9.80;;;13.50;99.90;;;;;;5036284;28;20472;-82
2022/04/26 16:42:27;;;;;;;11.00;9.90;;;13.60;99.90;;;;;;5036955;28;20464;-82
2022/04/26 16:44:55;;;;;;;12.30;9.90;;;13.70;99.90;;;;;;5032852;28;20450;-81
2022/04/26 16:47:22;;;;;;;10.60;9.57;;;13.80;99.90;;;;;;5037467;28;20826;-84
2022/04/26 16:49:49;;;;;;;12.80;10.20;;;14.00;99.90;;;;;;5039576;28;20483;-83
2022/04/26 16:52:16;;;;;;;13.23;10.60;;;14.10;99.90;;;;;;5038763;28;20507;-83
2022/04/26 16:54:43;;;;;;;9.97;8.87;;;14.10;99.90;;;;;;5033014;28;20445;-83
2022/04/26 16:57:09;;;;;;;12.97;11.20;;;14.20;99.90;;;;;;5036378;28;20489;-84
2022/04/26 16:59:36;;;;;;;12.17;10.90;;;14.20;99.90;;;;;;5035475;28;20488;-83
2022/04/26 17:02:05;;;;;;;14.03;10.00;;;14.30;99.90;;;;;;5038443;28;20757;-82
2022/04/26 17:04:32;;;;;;;10.53;9.43;;;14.40;99.90;;;;;;5035898;28;20476;-83
2022/04/26 17:07:00;;;;;;;11.77;10.60;;;14.40;99.90;;;;;;5037614;28;20447;-83
2022/04/26 17:09:27;;;;;;;12.93;11.50;;;14.50;99.90;;;;;;5047072;28;20480;-82
2022/04/26 17:11:53;;;;;;;12.30;11.10;;;14.40;99.90;;;;;;5033939;28;20459;-81
2022/04/26 17:14:21;;;;;;;13.00;11.70;;;14.50;99.90;;;;;;5033945;28;20540;-82